createdAt,value
2022-12-04T00:00:58.005Z,99.30
2022-12-04T00:04:59.804Z,98.90
2022-12-04T00:09:01.542Z,99.20
2022-12-04T00:13:03.241Z,99.10
2022-12-04T00:17:04.904Z,98.80
2022-12-04T00:21:09.022Z,98.50
2022-12-04T00:25:10.753Z,98.80
2022-12-04T00:29:13.633Z,98.80
2022-12-04T00:33:15.356Z,98.60
2022-12-04T00:37:17.077Z,98.60
2022-12-04T00:41:21.850Z,98.40
2022-12-04T00:45:23.606Z,98.50
2022-12-04T00:49:25.358Z,98.30
2022-12-04T00:53:27.106Z,98.30
2022-12-04T00:57:28.787Z,98.10
2022-12-04T01:01:31.251Z,98.30
2022-12-04T01:05:41.909Z,98.50
2022-12-04T01:09:43.865Z,98.70
2022-12-04T01:13:46.246Z,98.60
2022-12-04T01:17:48.144Z,99.00
2022-12-04T01:21:50.104Z,98.60
2022-12-04T01:25:57.030Z,98.70
2022-12-04T01:29:58.820Z,98.70
2022-12-04T01:34:00.560Z,98.60
2022-12-04T01:38:02.265Z,98.90
2022-12-04T01:42:04.642Z,98.70
2022-12-04T01:46:07.101Z,98.80
2022-12-04T01:50:10.136Z,98.90
2022-12-04T01:54:34.096Z,98.60
2022-12-04T01:58:41.680Z,98.50
2022-12-04T02:02:46.584Z,98.80
2022-12-04T02:06:48.510Z,98.60
2022-12-04T02:11:21.178Z,98.70
2022-12-04T02:15:50.488Z,98.80
2022-12-04T02:20:13.643Z,98.90
2022-12-04T02:24:52.311Z,98.80
2022-12-04T02:29:08.203Z,99.00
2022-12-04T02:33:46.500Z,99.10
2022-12-04T02:37:54.496Z,99.60
2022-12-04T02:42:10.708Z,99.50
2022-12-04T02:46:22.266Z,99.60
2022-12-04T02:50:24.693Z,99.90
2022-12-04T02:54:40.234Z,99.80
2022-12-04T02:58:49.484Z,99.60
2022-12-04T03:02:56.871Z,99.70
2022-12-04T03:07:04.520Z,99.60
2022-12-04T03:11:06.726Z,99.60
2022-12-04T03:15:31.272Z,99.90
2022-12-04T03:19:44.682Z,99.90
2022-12-04T03:23:59.587Z,99.90
2022-12-04T03:28:07.405Z,99.90
2022-12-04T03:32:39.357Z,99.90
2022-12-04T03:36:52.425Z,99.50
2022-12-04T03:40:54.087Z,99.90
2022-12-04T03:45:03.072Z,99.90
2022-12-04T03:49:14.168Z,99.90
2022-12-04T03:53:23.160Z,99.80
2022-12-04T03:57:31.359Z,99.90
2022-12-04T04:01:36.920Z,99.90
2022-12-04T04:05:44.968Z,99.90
2022-12-04T04:09:50.320Z,99.90
2022-12-04T04:14:25.345Z,99.80
2022-12-04T04:18:47.038Z,99.80
2022-12-04T04:23:09.515Z,99.90
2022-12-04T04:27:11.722Z,99.60
2022-12-04T04:31:18.191Z,99.50
2022-12-04T04:35:22.230Z,99.40
2022-12-04T04:39:35.079Z,99.10
2022-12-04T04:43:51.786Z,99.10
2022-12-04T04:48:02.287Z,99.00
2022-12-04T04:52:04.300Z,99.20
2022-12-04T04:56:07.373Z,99.60
2022-12-04T05:00:14.206Z,99.60
2022-12-04T05:04:15.862Z,99.50
2022-12-04T05:08:18.681Z,99.40
2022-12-04T05:12:20.697Z,99.50
2022-12-04T05:16:22.542Z,99.70
2022-12-04T05:20:24.302Z,99.30
2022-12-04T05:24:26.133Z,99.30
2022-12-04T05:28:28.271Z,99.90
2022-12-04T05:32:30.621Z,99.50
2022-12-04T05:36:32.359Z,99.30
2022-12-04T05:40:34.079Z,99.30
2022-12-04T05:44:35.787Z,99.90
2022-12-04T05:48:37.605Z,99.90
2022-12-04T05:52:39.475Z,99.90
2022-12-04T05:56:41.142Z,99.90
2022-12-04T06:00:42.840Z,99.90
2022-12-04T06:04:44.534Z,99.90
2022-12-04T06:08:46.337Z,99.90
2022-12-04T06:12:48.042Z,99.90
2022-12-04T06:16:49.795Z,99.90
2022-12-04T06:20:51.616Z,99.90
2022-12-04T06:24:53.618Z,99.90
2022-12-04T06:28:59.873Z,99.90
2022-12-04T06:33:01.652Z,99.90
2022-12-04T06:37:03.595Z,99.90
2022-12-04T06:41:07.215Z,99.90
2022-12-04T06:45:09.721Z,99.90
2022-12-04T06:49:11.401Z,99.90
2022-12-04T06:53:13.146Z,99.90
2022-12-04T06:57:14.805Z,99.90
2022-12-04T07:01:19.860Z,99.90
2022-12-04T07:05:21.608Z,99.90
2022-12-04T07:09:23.481Z,99.90
2022-12-04T07:13:25.148Z,99.90
2022-12-04T07:17:27.981Z,99.60
2022-12-04T07:21:31.407Z,99.00
2022-12-04T07:25:33.093Z,99.30
2022-12-04T07:29:34.859Z,99.90
2022-12-04T07:33:37.378Z,99.50
2022-12-04T07:37:39.117Z,99.50
2022-12-04T07:41:40.983Z,99.70
2022-12-04T07:45:42.847Z,99.90
2022-12-04T07:49:44.571Z,99.90
2022-12-04T07:53:48.149Z,99.90
2022-12-04T07:57:49.894Z,99.80
2022-12-04T08:01:51.732Z,99.90
2022-12-04T08:05:53.431Z,99.90
2022-12-04T08:09:55.295Z,99.90
2022-12-04T08:14:02.463Z,99.90
2022-12-04T08:18:04.172Z,99.70
2022-12-04T08:22:05.888Z,99.40
2022-12-04T08:26:08.466Z,99.20
2022-12-04T08:30:10.519Z,99.30
2022-12-04T08:34:12.243Z,99.30
2022-12-04T08:38:13.971Z,99.10
2022-12-04T08:42:15.666Z,99.50
2022-12-04T08:46:18.424Z,99.30
2022-12-04T08:50:20.344Z,99.40
2022-12-04T08:54:22.117Z,99.10
2022-12-04T08:58:24.242Z,99.10
2022-12-04T09:02:25.923Z,98.80
2022-12-04T09:06:28.006Z,99.40
2022-12-04T09:10:29.776Z,99.10
2022-12-04T09:14:31.540Z,98.90
2022-12-04T09:18:34.823Z,99.00
2022-12-04T09:23:02.086Z,99.40
2022-12-04T09:26:58.705Z,99.20
2022-12-04T09:31:04.119Z,99.20
2022-12-04T09:35:07.082Z,99.80
2022-12-04T09:39:10.847Z,99.90
2022-12-04T09:43:27.570Z,99.40
2022-12-04T09:47:49.095Z,99.70
2022-12-04T09:51:53.936Z,99.90
2022-12-04T09:55:58.689Z,99.90
2022-12-04T10:00:00.539Z,99.90
2022-12-04T10:04:06.064Z,99.90
2022-12-04T10:08:17.595Z,99.90
2022-12-04T10:12:28.653Z,99.50
2022-12-04T10:16:39.021Z,99.50
2022-12-04T10:21:09.828Z,99.90
2022-12-04T10:25:24.375Z,99.90
2022-12-04T10:29:35.662Z,99.90
2022-12-04T10:33:51.878Z,99.90
2022-12-04T10:38:36.232Z,99.90
2022-12-04T10:43:06.760Z,99.50
2022-12-04T10:47:12.082Z,99.80
2022-12-04T10:51:19.323Z,99.90
2022-12-04T10:55:33.875Z,99.90
2022-12-04T10:59:51.273Z,99.90
2022-12-04T11:04:19.537Z,99.90
2022-12-04T11:08:30.949Z,99.90
2022-12-04T11:12:32.864Z,99.60
2022-12-04T11:16:34.625Z,99.20
2022-12-04T11:20:36.505Z,99.20
2022-12-04T11:24:40.573Z,99.40
2022-12-04T11:28:53.374Z,99.60
2022-12-04T11:32:55.818Z,99.50
2022-12-04T11:37:03.368Z,99.50
2022-12-04T11:41:06.537Z,99.40
2022-12-04T11:45:23.204Z,99.40
2022-12-04T11:49:29.327Z,99.60
2022-12-04T11:53:42.666Z,99.20
2022-12-04T11:58:08.538Z,98.90
2022-12-04T12:02:53.459Z,99.10
2022-12-04T12:07:07.073Z,99.20
2022-12-04T12:11:21.666Z,99.90
2022-12-04T12:15:32.509Z,99.90
2022-12-04T12:19:59.625Z,99.90
2022-12-04T12:24:21.604Z,99.40
2022-12-04T12:28:41.867Z,99.20
2022-12-04T12:32:46.723Z,99.30
2022-12-04T12:36:52.598Z,99.30
2022-12-04T12:41:18.930Z,99.40
2022-12-04T12:45:51.860Z,99.80
2022-12-04T12:50:19.708Z,99.60
2022-12-04T12:54:41.612Z,99.30
2022-12-04T12:58:49.893Z,99.20
2022-12-04T13:02:55.589Z,98.90
2022-12-04T13:07:25.722Z,99.10
2022-12-04T13:11:29.395Z,99.30
2022-12-04T13:15:45.519Z,99.10
2022-12-04T13:19:56.627Z,98.80
2022-12-04T13:24:37.264Z,98.70
2022-12-04T13:28:45.047Z,98.80
2022-12-04T13:32:52.729Z,99.40
2022-12-04T13:37:32.815Z,99.50
2022-12-04T13:41:38.067Z,99.20
2022-12-04T13:45:40.633Z,99.90
2022-12-04T13:49:47.982Z,99.90
2022-12-04T13:54:30.826Z,99.90
2022-12-04T13:58:35.085Z,99.90
2022-12-04T14:02:38.336Z,99.90
2022-12-04T14:06:43.280Z,99.90
2022-12-04T14:10:47.177Z,99.70
2022-12-04T14:14:54.686Z,99.90
2022-12-04T14:18:59.486Z,99.90
2022-12-04T14:23:27.632Z,99.90
2022-12-04T14:27:33.851Z,99.90
2022-12-04T14:31:42.270Z,99.90
2022-12-04T14:35:49.055Z,99.90
2022-12-04T14:39:54.364Z,99.50
2022-12-04T14:44:00.046Z,99.40
2022-12-04T14:48:28.373Z,99.30
2022-12-04T14:52:43.776Z,99.20
2022-12-04T14:57:26.051Z,99.10
2022-12-04T15:01:36.076Z,99.10
2022-12-04T15:05:38.683Z,99.30
2022-12-04T15:10:10.339Z,99.70
2022-12-04T15:14:15.079Z,99.60
2022-12-04T15:18:17.757Z,99.40
2022-12-04T15:22:41.944Z,99.20
2022-12-04T15:26:43.965Z,99.10
2022-12-04T15:31:14.606Z,99.00
2022-12-04T15:35:27.285Z,99.30
2022-12-04T15:39:32.764Z,99.30
2022-12-04T15:43:43.208Z,99.40
2022-12-04T15:47:44.923Z,99.40
2022-12-04T15:51:47.733Z,99.40
2022-12-04T15:55:54.029Z,99.40
2022-12-04T15:59:57.616Z,99.40
2022-12-04T16:03:59.382Z,99.70
2022-12-04T16:08:21.389Z,99.70
2022-12-04T16:12:29.459Z,99.70
2022-12-04T16:16:31.643Z,99.90
2022-12-04T16:20:38.407Z,99.80
2022-12-04T16:24:40.316Z,99.70
2022-12-04T16:28:42.599Z,99.90
2022-12-04T16:32:44.326Z,99.90
2022-12-04T16:36:46.068Z,99.90
2022-12-04T16:40:49.083Z,99.90
2022-12-04T16:44:51.486Z,99.90
2022-12-04T16:48:53.252Z,99.90
2022-12-04T16:52:56.396Z,99.90
2022-12-04T16:56:58.595Z,99.90
2022-12-04T17:01:00.517Z,99.90
2022-12-04T17:05:02.641Z,99.90
2022-12-04T17:09:05.574Z,99.90
2022-12-04T17:13:07.498Z,99.90
2022-12-04T17:17:09.191Z,99.90
2022-12-04T17:21:13.580Z,99.90
2022-12-04T17:25:16.463Z,99.90
2022-12-04T17:29:18.350Z,99.90
2022-12-04T17:33:20.247Z,99.90
2022-12-04T17:37:21.999Z,99.90
2022-12-04T17:41:24.235Z,99.90
2022-12-04T17:45:26.267Z,99.90
2022-12-04T17:49:28.044Z,99.90
2022-12-04T17:53:29.768Z,99.90
2022-12-04T17:57:31.546Z,99.90
2022-12-04T18:01:33.385Z,99.90
2022-12-04T18:05:35.117Z,99.90
2022-12-04T18:09:37.201Z,99.90
2022-12-04T18:13:39.597Z,99.90
2022-12-04T18:17:41.316Z,99.90
2022-12-04T18:21:43.344Z,99.80
2022-12-04T18:25:55.484Z,99.70
2022-12-04T18:29:57.497Z,99.70
2022-12-04T18:33:59.612Z,99.90
2022-12-04T18:38:01.322Z,99.90
2022-12-04T18:42:03.287Z,99.80
2022-12-04T18:46:08.255Z,99.80
2022-12-04T18:50:10.515Z,99.70
2022-12-04T18:54:16.481Z,99.60
2022-12-04T18:58:18.360Z,99.70
2022-12-04T19:02:20.255Z,99.90
2022-12-04T19:06:27.576Z,99.90
2022-12-04T19:10:29.413Z,99.90
2022-12-04T19:14:32.086Z,99.90
2022-12-04T19:18:33.868Z,99.90
2022-12-04T19:22:35.702Z,99.80
2022-12-04T19:26:37.681Z,99.90
2022-12-04T19:30:39.615Z,99.60
2022-12-04T19:34:41.489Z,99.40
2022-12-04T19:38:43.549Z,99.40
2022-12-04T19:42:45.408Z,99.50
2022-12-04T19:46:47.293Z,99.50
2022-12-04T19:50:49.649Z,99.80
2022-12-04T19:54:51.444Z,99.90
2022-12-04T19:58:54.659Z,99.70
2022-12-04T20:02:56.569Z,99.80
2022-12-04T20:06:58.759Z,99.60
2022-12-04T20:11:05.629Z,99.60
2022-12-04T20:15:07.773Z,99.50
2022-12-04T20:19:14.052Z,99.80
2022-12-04T20:23:15.942Z,99.90
2022-12-04T20:27:17.712Z,99.90
2022-12-04T20:31:44.309Z,99.90
2022-12-04T20:35:46.458Z,99.90
2022-12-04T20:39:48.147Z,99.70
2022-12-04T20:43:50.067Z,99.60
2022-12-04T20:47:51.806Z,99.70
2022-12-04T20:51:53.651Z,99.60
2022-12-04T20:55:56.620Z,99.30
2022-12-04T20:59:59.485Z,99.20
2022-12-04T21:04:02.310Z,99.30
2022-12-04T21:08:04.213Z,99.30
2022-12-04T21:12:28.969Z,99.20
2022-12-04T21:16:31.289Z,99.20
2022-12-04T21:20:33.141Z,99.10
2022-12-04T21:24:38.687Z,99.30
2022-12-04T21:28:40.679Z,99.00
2022-12-04T21:32:42.496Z,99.00
2022-12-04T21:36:46.287Z,99.00
2022-12-04T21:40:51.051Z,99.20
2022-12-04T21:44:52.792Z,99.10
2022-12-04T21:48:54.863Z,99.10
2022-12-04T21:52:56.644Z,98.90
2022-12-04T21:56:58.971Z,99.00
2022-12-04T22:01:01.030Z,99.00
2022-12-04T22:05:03.198Z,99.20
2022-12-04T22:09:09.000Z,99.10
2022-12-04T22:13:11.096Z,99.10
2022-12-04T22:17:12.878Z,98.90
2022-12-04T22:21:16.740Z,98.90
2022-12-04T22:25:18.480Z,99.10
2022-12-04T22:29:49.021Z,99.20
2022-12-04T22:33:42.691Z,99.30
2022-12-04T22:37:44.901Z,99.40
2022-12-04T22:41:46.641Z,99.20
2022-12-04T22:45:49.424Z,99.20
2022-12-04T22:49:51.504Z,99.20
2022-12-04T22:53:56.116Z,99.20
2022-12-04T22:57:57.837Z,99.30
2022-12-04T23:02:00.331Z,99.30
2022-12-04T23:06:02.097Z,98.80
2022-12-04T23:10:04.040Z,98.80
2022-12-04T23:14:07.945Z,99.10
2022-12-04T23:18:09.763Z,98.90
2022-12-04T23:22:11.515Z,98.80
2022-12-04T23:26:16.028Z,98.60
2022-12-04T23:30:21.394Z,98.70
2022-12-04T23:34:27.491Z,98.60
2022-12-04T23:38:29.811Z,98.60
2022-12-04T23:42:34.297Z,98.80
2022-12-04T23:46:36.250Z,98.80
2022-12-04T23:50:38.097Z,98.70
2022-12-04T23:54:39.801Z,98.40
2022-12-04T23:58:42.334Z,98.40
